This is the latest recevied weather packets stored in our database for station/object vk4vs. If no packets are shown the sender has not sent any weather packets the latest 10 day(s).
| Time | Temp. | Humidity | Pressure | Rain* | Wind** | Luminosity | Snow |
|---|---|---|---|---|---|---|---|
| 1777908653 | 14.44° C | 98% | 1016.9 hPa | 0 mm | - | - | - |
| 1777905053 | 14.44° C | 98% | 1017.3 hPa | 0 mm | - | - | - |
| 1777903254 | 14.44° C | 98% | 1017.5 hPa | 0 mm | - | - | - |
| 1777901453 | 14.44° C | 97% | 1017.7 hPa | 0 mm | - | - | - |
| 1777899654 | 14.44° C | 97% | 1018 hPa | 0 mm | - | - | - |
| 1777897853 | 15° C | 97% | 1018.2 hPa | 0 mm | - | - | - |
| 1777896053 | 14.44° C | 96% | 1018.5 hPa | 0 mm | - | - | - |
| 1777894254 | 14.44° C | 96% | 1018.4 hPa | 0 mm | - | - | - |
| 1777892453 | 15° C | 95% | 1018.3 hPa | 0 mm | - | - | - |
| 1777890653 | 15° C | 94% | 1018.3 hPa | 0 mm | - | - | - |
| 1777888853 | 15° C | 93% | 1018.2 hPa | 0 mm | - | - | - |
| 1777887053 | 15.56° C | 91% | 1018 hPa | 0 mm | - | - | - |
| 1777885254 | 15.56° C | 89% | 1017.8 hPa | 0 mm | - | - | - |
| 1777883453 | 16.67° C | 86% | 1017.6 hPa | 0 mm | - | - | - |
| 1777881653 | 17.22° C | 84% | 1017.3 hPa | 0 mm | - | - | - |
| 1777879853 | 17.78° C | 80% | 1016.9 hPa | 0 mm | - | - | - |
| 1777878054 | 18.33° C | 77% | 1016.6 hPa | 0 mm | - | - | - |
| 1777876253 | 18.89° C | 76% | 1016.3 hPa | 0 mm | - | - | - |
| 1777874453 | 19.44° C | 71% | 1016.4 hPa | 0 mm | - | - | - |
| 1777872653 | 20° C | 70% | 1016.3 hPa | 0 mm | - | - | - |
| 1777870853 | 21.11° C | 60% | 1016.1 hPa | 0 mm | - | - | - |
| 1777869054 | 21.67° C | 58% | 1016.3 hPa | 0 mm | - | - | - |
| 1777867254 | 22.22° C | 54% | 1016.4 hPa | 0 mm | - | - | - |
| 1777865454 | 21.67° C | 55% | 1016.6 hPa | 0 mm | - | - | - |
| 1777863653 | 21.11° C | 56% | 1017 hPa | 0 mm | - | - | - |
* Rain latest hour (hover to see other rain measurements)
** Current wind speed in m/s (hover to see current wind gust speed)